IGO31AC VABB-VOHS
Flight info
| Callsign | IGO31AC |
|---|---|
| Flight time | 0h 56m |
| Altitude | 33000 |
| Route | VEVAK2A PPN W28 PONIP NAMSA8 |
| Aircraft | A21N/M-SDE2E3FGHIRWXY/LB1 |
Departure
| Time | 2026-05-05 05:22 |
|---|---|
| Airport | Chhatrapati Shivaji Maharaj International Airport (VABB) |
Arrival
| Time | 2026-05-05 06:18 |
|---|---|
| Airport | Rajiv Gandhi International Airport (VOHS) |
| Time | Latitude | Longitude | Altitude | Speed | Heading |
|---|---|---|---|---|---|
| 2026-05-05 05:05 | 19.09156 | 72.85564 | 31 ft | 0 kts | 1° |
| 2026-05-05 05:12 | 19.09151 | 72.85564 | 31 ft | 2 kts | 1° |
| 2026-05-05 05:12 | 19.09136 | 72.85564 | 30 ft | 2 kts | 14° |
| 2026-05-05 05:12 | 19.09122 | 72.85558 | 30 ft | 2 kts | 30° |
| 2026-05-05 05:12 | 19.09109 | 72.85548 | 29 ft | 2 kts | 47° |
| 2026-05-05 05:13 | 19.09100 | 72.85535 | 29 ft | 2 kts | 63° |
| 2026-05-05 05:13 | 19.09095 | 72.85520 | 29 ft | 2 kts | 79° |
| 2026-05-05 05:13 | 19.09094 | 72.85511 | 29 ft | 1 kts | 89° |
| 2026-05-05 05:13 | 19.09094 | 72.85505 | 29 ft | 0 kts | 89° |
| 2026-05-05 05:15 | 19.09094 | 72.85511 | 29 ft | 1 kts | 89° |
| 2026-05-05 05:15 | 19.09094 | 72.85530 | 29 ft | 3 kts | 89° |
| 2026-05-05 05:15 | 19.09094 | 72.85563 | 29 ft | 5 kts | 89° |
| 2026-05-05 05:16 | 19.09077 | 72.85596 | 29 ft | 6 kts | 149° |
| 2026-05-05 05:16 | 19.09034 | 72.85633 | 28 ft | 9 kts | 114° |
| 2026-05-05 05:16 | 19.09027 | 72.85702 | 28 ft | 10 kts | 89° |
| 2026-05-05 05:16 | 19.09028 | 72.85784 | 28 ft | 11 kts | 89° |
| 2026-05-05 05:17 | 19.09029 | 72.85875 | 29 ft | 12 kts | 89° |
| 2026-05-05 05:17 | 19.09030 | 72.85967 | 31 ft | 12 kts | 90° |
| 2026-05-05 05:17 | 19.09031 | 72.86064 | 31 ft | 13 kts | 87° |
| 2026-05-05 05:17 | 19.09035 | 72.86169 | 31 ft | 14 kts | 88° |
| 2026-05-05 05:18 | 19.09036 | 72.86282 | 31 ft | 15 kts | 90° |
| 2026-05-05 05:18 | 19.09036 | 72.86402 | 31 ft | 16 kts | 90° |
| 2026-05-05 05:18 | 19.09038 | 72.86531 | 30 ft | 18 kts | 86° |
| 2026-05-05 05:18 | 19.09042 | 72.86665 | 30 ft | 18 kts | 89° |
| 2026-05-05 05:19 | 19.09043 | 72.86804 | 30 ft | 19 kts | 90° |
| 2026-05-05 05:19 | 19.09047 | 72.86951 | 28 ft | 20 kts | 90° |
| 2026-05-05 05:19 | 19.09048 | 72.87083 | 28 ft | 13 kts | 88° |
| 2026-05-05 05:19 | 19.09052 | 72.87189 | 28 ft | 15 kts | 87° |
| 2026-05-05 05:20 | 19.09053 | 72.87302 | 28 ft | 16 kts | 90° |
| 2026-05-05 05:20 | 19.09048 | 72.87424 | 28 ft | 16 kts | 110° |
| 2026-05-05 05:20 | 19.08945 | 72.87456 | 27 ft | 16 kts | 179° |
| 2026-05-05 05:20 | 19.08880 | 72.87378 | 26 ft | 17 kts | 266° |
| 2026-05-05 05:21 | 19.08876 | 72.87202 | 26 ft | 47 kts | 268° |
| 2026-05-05 05:21 | 19.08866 | 72.86607 | 33 ft | 113 kts | 269° |
| 2026-05-05 05:21 | 19.08850 | 72.85572 | 28 ft | 168 kts | 268° |
| 2026-05-05 05:21 | 19.08836 | 72.84272 | 401 ft | 183 kts | 269° |
| 2026-05-05 05:22 | 19.08843 | 72.82951 | 765 ft | 180 kts | 268° |
| 2026-05-05 05:22 | 19.08813 | 72.81603 | 1051 ft | 187 kts | 268° |
| 2026-05-05 05:22 | 19.08794 | 72.80258 | 1536 ft | 182 kts | 269° |
| 2026-05-05 05:22 | 19.08776 | 72.78901 | 1855 ft | 189 kts | 269° |
| 2026-05-05 05:23 | 19.08756 | 72.77466 | 2092 ft | 201 kts | 269° |
| 2026-05-05 05:23 | 19.08734 | 72.75927 | 2337 ft | 214 kts | 269° |
| 2026-05-05 05:23 | 19.08633 | 72.74317 | 2529 ft | 230 kts | 256° |
| 2026-05-05 05:23 | 19.07810 | 72.72810 | 2725 ft | 248 kts | 223° |
| 2026-05-05 05:24 | 19.06240 | 72.71940 | 3030 ft | 263 kts | 190° |
| 2026-05-05 05:24 | 19.04411 | 72.72128 | 3476 ft | 271 kts | 156° |
| 2026-05-05 05:24 | 19.02908 | 72.73309 | 4079 ft | 272 kts | 136° |
| 2026-05-05 05:24 | 19.01434 | 72.74579 | 4632 ft | 276 kts | 155° |
| 2026-05-05 05:25 | 18.99600 | 72.75019 | 5251 ft | 276 kts | 178° |
| 2026-05-05 05:25 | 18.97671 | 72.74995 | 5858 ft | 278 kts | 183° |
| 2026-05-05 05:25 | 18.95733 | 72.74882 | 6441 ft | 281 kts | 183° |
| 2026-05-05 05:25 | 18.93758 | 72.74927 | 7037 ft | 284 kts | 166° |
| 2026-05-05 05:26 | 18.92060 | 72.75906 | 7614 ft | 284 kts | 133° |
| 2026-05-05 05:26 | 18.91091 | 72.77696 | 8253 ft | 284 kts | 107° |
| 2026-05-05 05:26 | 18.90597 | 72.79704 | 8824 ft | 287 kts | 105° |
| 2026-05-05 05:26 | 18.90088 | 72.81771 | 9377 ft | 290 kts | 106° |
| 2026-05-05 05:27 | 18.89549 | 72.83822 | 9954 ft | 292 kts | 107° |
| 2026-05-05 05:27 | 18.88972 | 72.85895 | 10360 ft | 301 kts | 107° |
| 2026-05-05 05:27 | 18.87720 | 72.90301 | 10850 ft | 329 kts | 108° |
| 2026-05-05 05:28 | 18.87048 | 72.92648 | 11174 ft | 338 kts | 108° |
| 2026-05-05 05:28 | 18.86357 | 72.95055 | 11684 ft | 342 kts | 108° |
| 2026-05-05 05:28 | 18.85665 | 72.97462 | 12201 ft | 345 kts | 108° |
| 2026-05-05 05:28 | 18.84971 | 72.99875 | 12681 ft | 348 kts | 108° |
| 2026-05-05 05:29 | 18.84267 | 73.02322 | 13156 ft | 352 kts | 108° |
| 2026-05-05 05:29 | 18.83555 | 73.04791 | 13625 ft | 355 kts | 107° |
| 2026-05-05 05:29 | 18.82819 | 73.07339 | 14103 ft | 359 kts | 107° |
| 2026-05-05 05:29 | 18.82083 | 73.09884 | 14564 ft | 362 kts | 107° |
| 2026-05-05 05:30 | 18.81339 | 73.12462 | 15028 ft | 365 kts | 106° |
| 2026-05-05 05:30 | 18.80591 | 73.15050 | 15488 ft | 368 kts | 106° |
| 2026-05-05 05:30 | 18.79847 | 73.17632 | 15920 ft | 372 kts | 106° |
| 2026-05-05 05:30 | 18.79088 | 73.20262 | 16370 ft | 374 kts | 105° |
| 2026-05-05 05:31 | 18.78334 | 73.22870 | 16778 ft | 378 kts | 105° |
| 2026-05-05 05:31 | 18.77562 | 73.25542 | 17163 ft | 381 kts | 105° |
| 2026-05-05 05:31 | 18.76782 | 73.28239 | 17570 ft | 383 kts | 105° |
| 2026-05-05 05:31 | 18.76001 | 73.30943 | 17972 ft | 386 kts | 105° |
| 2026-05-05 05:32 | 18.75223 | 73.33633 | 18345 ft | 389 kts | 105° |
| 2026-05-05 05:32 | 18.74422 | 73.36399 | 18702 ft | 392 kts | 105° |
| 2026-05-05 05:32 | 18.73629 | 73.39134 | 19044 ft | 395 kts | 105° |
| 2026-05-05 05:32 | 18.72817 | 73.41934 | 19367 ft | 397 kts | 105° |
| 2026-05-05 05:33 | 18.72010 | 73.44710 | 19683 ft | 400 kts | 105° |
| 2026-05-05 05:33 | 18.71188 | 73.47542 | 20005 ft | 403 kts | 105° |
| 2026-05-05 05:33 | 18.70356 | 73.50404 | 20307 ft | 406 kts | 105° |
| 2026-05-05 05:33 | 18.69526 | 73.53259 | 20596 ft | 409 kts | 105° |
| 2026-05-05 05:34 | 18.68688 | 73.56138 | 20885 ft | 411 kts | 105° |
| 2026-05-05 05:34 | 18.67850 | 73.59014 | 21168 ft | 414 kts | 105° |
| 2026-05-05 05:34 | 18.67006 | 73.61912 | 21462 ft | 415 kts | 105° |
| 2026-05-05 05:34 | 18.66148 | 73.64856 | 21736 ft | 418 kts | 105° |
| 2026-05-05 05:35 | 18.65291 | 73.67801 | 21983 ft | 420 kts | 105° |
| 2026-05-05 05:35 | 18.64428 | 73.70775 | 22248 ft | 423 kts | 105° |
| 2026-05-05 05:35 | 18.63577 | 73.73702 | 22519 ft | 425 kts | 105° |
| 2026-05-05 05:35 | 18.62704 | 73.76699 | 22801 ft | 427 kts | 106° |
| 2026-05-05 05:36 | 18.61827 | 73.79704 | 23076 ft | 428 kts | 106° |
| 2026-05-05 05:36 | 18.60954 | 73.82685 | 23347 ft | 430 kts | 106° |
| 2026-05-05 05:36 | 18.60063 | 73.85725 | 23618 ft | 432 kts | 106° |
| 2026-05-05 05:36 | 18.59178 | 73.88725 | 23891 ft | 434 kts | 107° |
| 2026-05-05 05:37 | 18.58157 | 73.91743 | 24159 ft | 435 kts | 110° |
| 2026-05-05 05:37 | 18.56984 | 73.94653 | 24404 ft | 438 kts | 114° |
| 2026-05-05 05:37 | 18.55723 | 73.97574 | 24657 ft | 439 kts | 114° |
| 2026-05-05 05:37 | 18.54443 | 74.00512 | 24915 ft | 441 kts | 114° |
| 2026-05-05 05:38 | 18.53159 | 74.03457 | 25176 ft | 442 kts | 114° |
| 2026-05-05 05:38 | 18.51893 | 74.06369 | 25407 ft | 444 kts | 114° |
| 2026-05-05 05:38 | 18.50611 | 74.09319 | 25652 ft | 445 kts | 114° |
| 2026-05-05 05:38 | 18.49324 | 74.12285 | 25912 ft | 446 kts | 114° |
| 2026-05-05 05:39 | 18.48028 | 74.15273 | 26161 ft | 447 kts | 114° |
| 2026-05-05 05:39 | 18.46744 | 74.18230 | 26401 ft | 448 kts | 114° |
| 2026-05-05 05:39 | 18.45453 | 74.21204 | 26626 ft | 449 kts | 115° |
| 2026-05-05 05:39 | 18.44146 | 74.24214 | 26831 ft | 451 kts | 115° |
| 2026-05-05 05:40 | 18.42845 | 74.27209 | 27035 ft | 452 kts | 115° |
| 2026-05-05 05:40 | 18.41531 | 74.30229 | 27252 ft | 453 kts | 115° |
| 2026-05-05 05:40 | 18.40231 | 74.33217 | 27464 ft | 455 kts | 115° |
| 2026-05-05 05:40 | 18.38907 | 74.36259 | 27671 ft | 456 kts | 115° |
| 2026-05-05 05:41 | 18.37580 | 74.39307 | 27865 ft | 457 kts | 115° |
| 2026-05-05 05:41 | 18.36268 | 74.42320 | 28062 ft | 459 kts | 115° |
| 2026-05-05 05:41 | 18.34928 | 74.45395 | 28257 ft | 460 kts | 115° |
| 2026-05-05 05:41 | 18.33591 | 74.48460 | 28473 ft | 461 kts | 115° |
| 2026-05-05 05:42 | 18.32257 | 74.51520 | 28684 ft | 462 kts | 115° |
| 2026-05-05 05:42 | 18.30927 | 74.54567 | 28872 ft | 464 kts | 115° |
| 2026-05-05 05:42 | 18.29574 | 74.57666 | 29083 ft | 465 kts | 115° |
| 2026-05-05 05:42 | 18.28227 | 74.60754 | 29294 ft | 466 kts | 115° |
| 2026-05-05 05:43 | 18.26874 | 74.63854 | 29552 ft | 466 kts | 115° |
| 2026-05-05 05:43 | 18.25527 | 74.66937 | 29855 ft | 465 kts | 115° |
| 2026-05-05 05:43 | 18.24199 | 74.69985 | 30155 ft | 463 kts | 115° |
| 2026-05-05 05:43 | 18.22855 | 74.73084 | 30448 ft | 462 kts | 115° |
| 2026-05-05 05:44 | 18.21535 | 74.76138 | 30752 ft | 461 kts | 115° |
| 2026-05-05 05:44 | 18.20207 | 74.79211 | 31045 ft | 460 kts | 115° |
| 2026-05-05 05:44 | 18.18891 | 74.82252 | 31329 ft | 460 kts | 115° |
| 2026-05-05 05:44 | 18.17566 | 74.85311 | 31567 ft | 460 kts | 115° |
| 2026-05-05 05:45 | 18.16230 | 74.88395 | 31779 ft | 461 kts | 115° |
| 2026-05-05 05:45 | 18.14911 | 74.91437 | 31977 ft | 462 kts | 115° |
| 2026-05-05 05:45 | 18.13569 | 74.94531 | 32200 ft | 463 kts | 115° |
| 2026-05-05 05:45 | 18.12236 | 74.97600 | 32438 ft | 463 kts | 115° |
| 2026-05-05 05:46 | 18.10889 | 75.00701 | 32673 ft | 463 kts | 115° |
| 2026-05-05 05:46 | 18.09560 | 75.03761 | 32912 ft | 464 kts | 115° |
| 2026-05-05 05:46 | 18.06866 | 75.09959 | 32991 ft | 472 kts | 115° |
| 2026-05-05 05:47 | 18.04113 | 75.16283 | 32990 ft | 479 kts | 115° |
| 2026-05-05 05:47 | 18.01330 | 75.22664 | 32990 ft | 479 kts | 115° |
| 2026-05-05 05:48 | 17.98566 | 75.28996 | 32980 ft | 480 kts | 114° |
| 2026-05-05 05:48 | 17.95776 | 75.35387 | 32979 ft | 480 kts | 114° |
| 2026-05-05 05:49 | 17.93005 | 75.41724 | 32978 ft | 480 kts | 114° |
| 2026-05-05 05:49 | 17.90222 | 75.48082 | 32976 ft | 480 kts | 114° |
| 2026-05-05 05:50 | 17.87420 | 75.54427 | 32977 ft | 480 kts | 115° |
| 2026-05-05 05:50 | 17.84610 | 75.60784 | 32979 ft | 481 kts | 115° |
| 2026-05-05 05:51 | 17.81818 | 75.67135 | 32977 ft | 481 kts | 115° |
| 2026-05-05 05:51 | 17.79030 | 75.73506 | 32976 ft | 482 kts | 115° |
| 2026-05-05 05:52 | 17.76231 | 75.79885 | 32977 ft | 482 kts | 115° |
| 2026-05-05 05:52 | 17.73424 | 75.86269 | 32979 ft | 482 kts | 115° |
| 2026-05-05 05:53 | 17.70615 | 75.92649 | 32979 ft | 482 kts | 115° |
| 2026-05-05 05:53 | 17.67798 | 75.99036 | 32980 ft | 481 kts | 115° |
| 2026-05-05 05:54 | 17.64991 | 76.05338 | 32975 ft | 482 kts | 115° |
| 2026-05-05 05:54 | 17.62141 | 76.11695 | 32971 ft | 482 kts | 115° |
| 2026-05-05 05:55 | 17.59302 | 76.18042 | 32963 ft | 482 kts | 115° |
| 2026-05-05 05:55 | 17.56467 | 76.24380 | 32960 ft | 482 kts | 115° |
| 2026-05-05 05:56 | 17.53614 | 76.30753 | 32959 ft | 481 kts | 115° |
| 2026-05-05 05:56 | 17.50787 | 76.37063 | 32959 ft | 481 kts | 115° |
| 2026-05-05 05:57 | 17.47948 | 76.43391 | 32963 ft | 480 kts | 115° |
| 2026-05-05 05:57 | 17.45108 | 76.49712 | 32963 ft | 481 kts | 115° |
| 2026-05-05 05:58 | 17.42272 | 76.56024 | 32962 ft | 480 kts | 115° |
| 2026-05-05 05:58 | 17.40852 | 76.59184 | 32818 ft | 476 kts | 115° |
| 2026-05-05 05:58 | 17.39457 | 76.62287 | 32035 ft | 479 kts | 115° |
| 2026-05-05 05:59 | 17.38021 | 76.65482 | 30800 ft | 490 kts | 115° |
| 2026-05-05 05:59 | 17.36566 | 76.68731 | 29671 ft | 497 kts | 115° |
| 2026-05-05 05:59 | 17.35106 | 76.71987 | 29018 ft | 492 kts | 116° |
| 2026-05-05 05:59 | 17.33677 | 76.75165 | 28515 ft | 484 kts | 116° |
| 2026-05-05 06:00 | 17.32372 | 76.78398 | 27968 ft | 479 kts | 110° |
| 2026-05-05 06:00 | 17.31492 | 76.81745 | 27390 ft | 475 kts | 102° |
| 2026-05-05 06:00 | 17.31057 | 76.85125 | 26765 ft | 473 kts | 95° |
| 2026-05-05 06:00 | 17.30861 | 76.88548 | 26198 ft | 468 kts | 94° |
| 2026-05-05 06:01 | 17.30714 | 76.91936 | 25680 ft | 463 kts | 93° |
| 2026-05-05 06:01 | 17.30573 | 76.95270 | 25169 ft | 458 kts | 94° |
| 2026-05-05 06:01 | 17.30426 | 76.98566 | 24683 ft | 452 kts | 94° |
| 2026-05-05 06:01 | 17.30274 | 77.01810 | 24199 ft | 447 kts | 94° |
| 2026-05-05 06:02 | 17.30116 | 77.05044 | 23711 ft | 442 kts | 94° |
| 2026-05-05 06:02 | 17.29958 | 77.08219 | 23222 ft | 437 kts | 95° |
| 2026-05-05 06:02 | 17.29798 | 77.11384 | 22744 ft | 432 kts | 95° |
| 2026-05-05 06:02 | 17.29640 | 77.14492 | 22264 ft | 428 kts | 95° |
| 2026-05-05 06:03 | 17.29481 | 77.17579 | 21808 ft | 424 kts | 95° |
| 2026-05-05 06:03 | 17.29321 | 77.20642 | 21369 ft | 420 kts | 95° |
| 2026-05-05 06:03 | 17.29163 | 77.23648 | 20945 ft | 415 kts | 95° |
| 2026-05-05 06:03 | 17.29008 | 77.26618 | 20540 ft | 410 kts | 95° |
| 2026-05-05 06:04 | 17.28853 | 77.29577 | 20135 ft | 405 kts | 95° |
| 2026-05-05 06:04 | 17.28700 | 77.32506 | 19732 ft | 401 kts | 95° |
| 2026-05-05 06:04 | 17.28550 | 77.35384 | 19329 ft | 396 kts | 94° |
| 2026-05-05 06:04 | 17.28399 | 77.38244 | 18929 ft | 392 kts | 94° |
| 2026-05-05 06:05 | 17.28251 | 77.41065 | 18532 ft | 388 kts | 94° |
| 2026-05-05 06:05 | 17.28102 | 77.43884 | 18132 ft | 384 kts | 94° |
| 2026-05-05 06:05 | 17.27956 | 77.46644 | 17737 ft | 380 kts | 94° |
| 2026-05-05 06:05 | 17.27812 | 77.49375 | 17349 ft | 376 kts | 94° |
| 2026-05-05 06:06 | 17.27666 | 77.52107 | 16951 ft | 372 kts | 94° |
| 2026-05-05 06:06 | 17.27524 | 77.54773 | 16544 ft | 369 kts | 94° |
| 2026-05-05 06:06 | 17.27381 | 77.57448 | 16133 ft | 366 kts | 93° |
| 2026-05-05 06:06 | 17.27239 | 77.60078 | 15718 ft | 363 kts | 93° |
| 2026-05-05 06:07 | 17.27098 | 77.62697 | 15296 ft | 361 kts | 93° |
| 2026-05-05 06:07 | 17.26958 | 77.65308 | 14869 ft | 358 kts | 93° |
| 2026-05-05 06:07 | 17.26819 | 77.67902 | 14432 ft | 357 kts | 93° |
| 2026-05-05 06:07 | 17.26681 | 77.70470 | 14001 ft | 355 kts | 92° |
| 2026-05-05 06:08 | 17.26541 | 77.73058 | 13559 ft | 353 kts | 92° |
| 2026-05-05 06:08 | 17.26394 | 77.75604 | 13123 ft | 351 kts | 93° |
| 2026-05-05 06:08 | 17.26204 | 77.78140 | 12622 ft | 351 kts | 94° |
| 2026-05-05 06:08 | 17.25997 | 77.80647 | 12136 ft | 344 kts | 94° |
| 2026-05-05 06:09 | 17.25792 | 77.83101 | 11688 ft | 332 kts | 94° |
| 2026-05-05 06:09 | 17.25594 | 77.85442 | 11166 ft | 323 kts | 94° |
| 2026-05-05 06:09 | 17.25398 | 77.87771 | 10541 ft | 316 kts | 94° |
| 2026-05-05 06:09 | 17.25211 | 77.90009 | 9976 ft | 307 kts | 94° |
| 2026-05-05 06:10 | 17.25029 | 77.92191 | 9507 ft | 296 kts | 94° |
| 2026-05-05 06:10 | 17.24853 | 77.94293 | 9098 ft | 290 kts | 94° |
| 2026-05-05 06:10 | 17.24678 | 77.96405 | 8712 ft | 289 kts | 94° |
| 2026-05-05 06:10 | 17.24505 | 77.98486 | 8374 ft | 286 kts | 93° |
| 2026-05-05 06:11 | 17.24335 | 78.00525 | 8083 ft | 281 kts | 94° |
| 2026-05-05 06:11 | 17.24165 | 78.02548 | 7795 ft | 277 kts | 93° |
| 2026-05-05 06:11 | 17.23999 | 78.04538 | 7513 ft | 273 kts | 94° |
| 2026-05-05 06:11 | 17.23834 | 78.06495 | 7245 ft | 269 kts | 93° |
| 2026-05-05 06:12 | 17.23675 | 78.08411 | 6937 ft | 262 kts | 94° |
| 2026-05-05 06:12 | 17.23516 | 78.10286 | 6570 ft | 254 kts | 94° |
| 2026-05-05 06:12 | 17.23346 | 78.12086 | 6203 ft | 247 kts | 101° |
| 2026-05-05 06:12 | 17.22920 | 78.13783 | 5880 ft | 239 kts | 104° |
| 2026-05-05 06:13 | 17.22590 | 78.15480 | 5704 ft | 236 kts | 95° |
| 2026-05-05 06:13 | 17.22504 | 78.17200 | 5663 ft | 237 kts | 89° |
| 2026-05-05 06:13 | 17.22534 | 78.18883 | 5400 ft | 227 kts | 87° |
| 2026-05-05 06:13 | 17.22580 | 78.20481 | 5107 ft | 214 kts | 86° |
| 2026-05-05 06:14 | 17.22616 | 78.22020 | 4758 ft | 207 kts | 87° |
| 2026-05-05 06:14 | 17.22640 | 78.23487 | 4657 ft | 201 kts | 87° |
| 2026-05-05 06:14 | 17.22660 | 78.24937 | 4667 ft | 201 kts | 88° |
| 2026-05-05 06:14 | 17.22676 | 78.26392 | 4530 ft | 193 kts | 88° |
| 2026-05-05 06:15 | 17.22690 | 78.27741 | 4298 ft | 179 kts | 88° |
| 2026-05-05 06:15 | 17.22705 | 78.29031 | 4083 ft | 177 kts | 88° |
| 2026-05-05 06:15 | 17.22720 | 78.30325 | 3868 ft | 177 kts | 88° |
| 2026-05-05 06:15 | 17.22735 | 78.31588 | 3637 ft | 167 kts | 88° |
| 2026-05-05 06:16 | 17.22749 | 78.32786 | 3428 ft | 163 kts | 87° |
| 2026-05-05 06:16 | 17.22764 | 78.33968 | 3231 ft | 163 kts | 87° |
| 2026-05-05 06:16 | 17.22778 | 78.35145 | 3040 ft | 163 kts | 88° |
| 2026-05-05 06:16 | 17.22793 | 78.36334 | 2842 ft | 162 kts | 87° |
| 2026-05-05 06:17 | 17.22808 | 78.37494 | 2651 ft | 160 kts | 88° |
| 2026-05-05 06:17 | 17.22825 | 78.38666 | 2452 ft | 160 kts | 88° |
| 2026-05-05 06:17 | 17.22840 | 78.39820 | 2258 ft | 160 kts | 88° |
| 2026-05-05 06:17 | 17.22865 | 78.40987 | 2068 ft | 160 kts | 90° |
| 2026-05-05 06:18 | 17.22866 | 78.42128 | 1969 ft | 150 kts | 89° |
| 2026-05-05 06:18 | 17.22887 | 78.43022 | 2002 ft | 90 kts | 90° |
| 2026-05-05 06:18 | 17.22940 | 78.43435 | 2015 ft | 28 kts | 68° |
| 2026-05-05 06:18 | 17.23028 | 78.43578 | 2021 ft | 19 kts | 29° |
| 2026-05-05 06:19 | 17.23094 | 78.43495 | 2016 ft | 19 kts | 277° |
| 2026-05-05 06:19 | 17.23092 | 78.43350 | 2013 ft | 20 kts | 268° |
| 2026-05-05 06:19 | 17.23100 | 78.43198 | 2009 ft | 19 kts | 306° |
| 2026-05-05 06:19 | 17.23223 | 78.43167 | 2009 ft | 18 kts | 356° |
| 2026-05-05 06:20 | 17.23324 | 78.43133 | 2008 ft | 13 kts | 297° |
| 2026-05-05 06:20 | 17.23335 | 78.43054 | 2005 ft | 5 kts | 289° |
| 2026-05-05 06:20 | 17.23379 | 78.43036 | 2003 ft | 8 kts | 355° |
| 2026-05-05 06:20 | 17.23430 | 78.43034 | 2002 ft | 0 kts | 359° |
| 2026-05-05 06:21 | 17.23433 | 78.43034 | 2002 ft | 0 kts | 359° |